Time;durP1;ratioP1;P1;durP2;ratioP2;P2;SDS_P1;SDS_P2;PMS_P1;PMS_P2;Temp;Humidity;BMP_temperature;BMP_pressure;BME280_temperature;BME280_humidity;BME280_pressure;Samples;Min_cycle;Max_cycle;Signal;HPM_P1;HPM_P2
2023/12/16 00:01:13;;;;;;;14.75;6.45;;;6.70;99.90;;;;;;4988335;28;20233;-79
2023/12/16 00:03:39;;;;;;;15.05;6.20;;;6.70;99.90;;;;;;5010791;28;20034;-79
2023/12/16 00:06:05;;;;;;;19.60;7.00;;;6.60;99.90;;;;;;5013594;28;20175;-79
2023/12/16 00:08:30;;;;;;;15.15;6.32;;;6.60;99.90;;;;;;5013273;28;20107;-79
2023/12/16 00:10:57;;;;;;;16.25;6.20;;;6.60;99.90;;;;;;4996852;28;20038;-79
2023/12/16 00:13:23;;;;;;;14.18;5.50;;;6.60;99.90;;;;;;5002378;28;20084;-79
2023/12/16 00:15:48;;;;;;;14.18;6.00;;;6.60;99.90;;;;;;5008839;28;20124;-79
2023/12/16 00:18:14;;;;;;;14.70;6.22;;;6.60;99.90;;;;;;4992559;28;20042;-79
2023/12/16 00:20:39;;;;;;;16.63;6.80;;;6.60;99.90;;;;;;5000178;28;20040;-79
2023/12/16 00:23:05;;;;;;;18.45;6.38;;;6.60;99.90;;;;;;5000110;28;20056;-79
2023/12/16 00:25:30;;;;;;;20.35;6.68;;;6.60;99.90;;;;;;4984632;28;20062;-80
2023/12/16 00:27:56;;;;;;;16.63;5.72;;;6.60;99.90;;;;;;5008434;28;20112;-79
2023/12/16 00:30:21;;;;;;;15.85;5.65;;;6.60;99.90;;;;;;4995491;28;20048;-79
2023/12/16 00:32:47;;;;;;;16.30;5.72;;;6.60;99.90;;;;;;5016899;28;20512;-79
2023/12/16 00:35:12;;;;;;;18.58;5.45;;;6.60;99.90;;;;;;4999821;28;20049;-79
2023/12/16 00:37:38;;;;;;;14.13;5.93;;;6.60;99.90;;;;;;4983612;28;20046;-79
2023/12/16 00:40:04;;;;;;;14.20;5.35;;;6.60;99.90;;;;;;4999870;28;20041;-79
2023/12/16 00:42:30;;;;;;;14.20;5.47;;;6.60;99.90;;;;;;4984241;28;20559;-79
2023/12/16 00:44:59;;;;;;;14.73;5.13;;;6.60;99.90;;;;;;5003075;28;20069;-79
2023/12/16 00:47:25;;;;;;;14.68;4.88;;;6.60;99.90;;;;;;5011815;28;20108;-79
2023/12/16 00:49:51;;;;;;;15.35;4.97;;;6.60;99.90;;;;;;4992108;28;20042;-79
2023/12/16 00:52:17;;;;;;;10.77;4.88;;;6.50;99.90;;;;;;5002281;28;20034;-79
2023/12/16 00:54:42;;;;;;;14.52;4.82;;;6.60;99.90;;;;;;5007985;28;20451;-79
2023/12/16 00:57:08;;;;;;;15.90;5.38;;;6.50;99.90;;;;;;4999792;28;20041;-80
2023/12/16 00:59:33;;;;;;;15.50;5.35;;;6.50;99.90;;;;;;5003091;28;20400;-79
2023/12/16 01:01:59;;;;;;;17.55;5.63;;;6.50;99.90;;;;;;4988284;28;20124;-79
2023/12/16 01:04:25;;;;;;;16.15;5.20;;;6.40;99.90;;;;;;4999098;28;20038;-79
2023/12/16 01:06:51;;;;;;;16.25;4.97;;;6.30;99.90;;;;;;4999914;28;20042;-79
2023/12/16 01:09:16;;;;;;;15.45;5.00;;;6.30;99.90;;;;;;4999505;28;20124;-79
2023/12/16 01:11:42;;;;;;;14.50;4.32;;;6.20;99.90;;;;;;4982828;28;20124;-79
2023/12/16 01:14:10;;;;;;;13.55;4.25;;;6.10;99.90;;;;;;4983758;28;20041;-80
2023/12/16 01:16:36;;;;;;;14.82;4.50;;;6.10;99.90;;;;;;4990672;28;20025;-80
2023/12/16 01:19:01;;;;;;;15.95;4.90;;;6.00;99.90;;;;;;5015197;28;20088;-80
2023/12/16 01:21:27;;;;;;;15.57;4.95;;;6.00;99.90;;;;;;4999134;28;20038;-80
2023/12/16 01:23:53;;;;;;;12.93;5.13;;;5.90;99.90;;;;;;4981948;28;20164;-80
2023/12/16 01:26:19;;;;;;;13.35;4.55;;;5.90;99.90;;;;;;4999086;28;20483;-80
2023/12/16 01:28:45;;;;;;;12.25;4.80;;;5.80;99.90;;;;;;4983825;28;20141;-80
2023/12/16 01:31:10;;;;;;;14.55;4.70;;;5.80;99.90;;;;;;4993678;28;20034;-80
2023/12/16 01:33:36;;;;;;;12.93;4.53;;;5.80;99.90;;;;;;5015302;28;20046;-79
2023/12/16 01:36:02;;;;;;;15.73;5.05;;;5.70;99.90;;;;;;5011076;28;20504;-79
2023/12/16 01:38:27;;;;;;;14.00;4.90;;;5.70;99.90;;;;;;4998754;28;20034;-79
2023/12/16 01:40:53;;;;;;;14.88;5.18;;;5.60;99.90;;;;;;4998626;28;20500;-79
2023/12/16 01:43:19;;;;;;;14.00;4.93;;;5.60;99.90;;;;;;4985096;28;20069;-79
2023/12/16 01:45:45;;;;;;;13.88;5.07;;;5.50;99.90;;;;;;4992088;28;20120;-79
2023/12/16 01:48:12;;;;;;;17.73;5.45;;;5.40;99.90;;;;;;4998357;28;20045;-79
2023/12/16 01:50:38;;;;;;;16.00;5.55;;;5.40;99.90;;;;;;4998778;28;20068;-80
2023/12/16 01:53:05;;;;;;;16.60;4.90;;;5.30;99.90;;;;;;4978997;28;20497;-79
2023/12/16 01:55:32;;;;;;;13.68;4.72;;;5.30;99.90;;;;;;4978697;28;20042;-79
2023/12/16 01:57:58;;;;;;;15.75;5.38;;;5.20;99.90;;;;;;4974219;28;20038;-79
2023/12/16 02:00:24;;;;;;;14.10;4.75;;;5.20;99.90;;;;;;5006520;28;20038;-79
2023/12/16 02:02:50;;;;;;;15.07;5.70;;;5.20;99.90;;;;;;4998544;28;20042;-80
2023/12/16 02:05:16;;;;;;;18.33;5.97;;;5.20;99.90;;;;;;5014788;28;20511;-79
2023/12/16 02:07:43;;;;;;;17.45;6.07;;;5.20;99.90;;;;;;4991590;28;20101;-79
2023/12/16 02:10:09;;;;;;;15.75;5.80;;;5.20;99.90;;;;;;4989777;28;20050;-79
2023/12/16 02:12:35;;;;;;;16.42;6.10;;;5.20;99.90;;;;;;5006170;28;20096;-80
2023/12/16 02:15:01;;;;;;;15.82;5.65;;;5.20;99.90;;;;;;4998014;28;20496;-80
2023/12/16 02:17:27;;;;;;;16.55;5.32;;;5.10;99.90;;;;;;4988955;28;20061;-79
2023/12/16 02:19:55;;;;;;;20.35;6.22;;;5.10;99.90;;;;;;4998200;28;20050;-79
2023/12/16 02:22:22;;;;;;;17.05;5.47;;;5.10;99.90;;;;;;4998784;28;20054;-79
2023/12/16 02:24:49;;;;;;;19.27;5.32;;;5.00;99.90;;;;;;5005964;28;20037;-79
2023/12/16 02:27:14;;;;;;;19.25;5.68;;;5.00;99.90;;;;;;4990054;28;20042;-79
2023/12/16 02:29:40;;;;;;;15.77;5.85;;;5.00;99.90;;;;;;4981756;28;20091;-79
2023/12/16 02:32:06;;;;;;;16.42;5.35;;;5.00;99.90;;;;;;4981639;28;20413;-79
2023/12/16 02:34:32;;;;;;;15.73;5.60;;;4.90;99.90;;;;;;4997636;28;20069;-79
2023/12/16 02:36:58;;;;;;;14.95;5.28;;;5.00;99.90;;;;;;4980279;28;20068;-79
2023/12/16 02:39:23;;;;;;;14.65;5.60;;;5.00;99.90;;;;;;5002460;28;20037;-79
2023/12/16 02:41:49;;;;;;;18.05;5.55;;;5.00;99.90;;;;;;4982376;28;20133;-79
2023/12/16 02:44:14;;;;;;;18.65;6.20;;;5.00;99.90;;;;;;4997646;28;20038;-80
2023/12/16 02:46:40;;;;;;;18.08;5.40;;;5.00;99.90;;;;;;4997573;28;20412;-80
2023/12/16 02:49:05;;;;;;;19.83;6.03;;;5.00;99.90;;;;;;4997685;28;20511;-79
2023/12/16 02:51:31;;;;;;;15.73;5.47;;;5.00;99.90;;;;;;4997206;28;20038;-79
2023/12/16 02:53:57;;;;;;;16.13;5.68;;;5.10;99.90;;;;;;5003638;28;20069;-79
2023/12/16 02:56:22;;;;;;;19.98;5.80;;;5.10;99.90;;;;;;5013927;28;20038;-79
2023/12/16 02:58:49;;;;;;;15.93;5.65;;;5.10;99.90;;;;;;4997683;28;20101;-79
2023/12/16 03:01:15;;;;;;;16.48;4.90;;;5.10;99.90;;;;;;4998265;28;20084;-79
2023/12/16 03:03:41;;;;;;;18.05;5.28;;;5.10;99.90;;;;;;4981300;28;20555;-79
2023/12/16 03:06:07;;;;;;;16.38;5.38;;;5.10;99.90;;;;;;4997136;28;20038;-79
2023/12/16 03:08:36;;;;;;;18.75;5.57;;;5.10;99.90;;;;;;4985127;28;20111;-79
2023/12/16 03:11:03;;;;;;;20.05;5.60;;;5.10;99.90;;;;;;4993704;28;20040;-79
2023/12/16 03:13:29;;;;;;;16.63;5.25;;;5.10;99.90;;;;;;4980571;28;20049;-79
2023/12/16 03:15:55;;;;;;;20.27;5.80;;;5.10;99.90;;;;;;4997007;28;20034;-79
2023/12/16 03:18:20;;;;;;;19.88;5.43;;;5.10;99.90;;;;;;4980466;28;20439;-80
2023/12/16 03:20:46;;;;;;;19.17;5.18;;;5.10;99.90;;;;;;4980719;28;20037;-80
2023/12/16 03:23:11;;;;;;;17.40;5.30;;;5.10;99.90;;;;;;4974770;28;20061;-80
2023/12/16 03:25:37;;;;;;;21.83;5.90;;;5.10;99.90;;;;;;5005397;28;20037;-80
2023/12/16 03:28:04;;;;;;;18.60;5.22;;;5.10;99.90;;;;;;5014105;28;20065;-80
2023/12/16 03:30:29;;;;;;;15.07;5.07;;;5.10;99.90;;;;;;4980996;28;20041;-79
2023/12/16 03:32:55;;;;;;;16.23;5.00;;;5.10;99.90;;;;;;4980592;28;20100;-79
2023/12/16 03:35:21;;;;;;;17.65;5.30;;;5.10;99.90;;;;;;4980882;28;20389;-79
2023/12/16 03:37:47;;;;;;;16.90;5.40;;;5.10;99.90;;;;;;4986841;28;20030;-78
2023/12/16 03:40:13;;;;;;;20.35;5.63;;;5.10;99.90;;;;;;4991169;28;20097;-79
2023/12/16 03:42:39;;;;;;;18.92;5.43;;;5.10;99.90;;;;;;4996951;28;20050;-79
2023/12/16 03:45:05;;;;;;;18.20;4.95;;;5.10;99.90;;;;;;4996577;28;20504;-79
2023/12/16 03:47:32;;;;;;;16.25;4.88;;;5.10;99.90;;;;;;4979695;28;20049;-79
2023/12/16 03:49:57;;;;;;;16.95;5.18;;;5.20;99.90;;;;;;4996879;28;20042;-79
2023/12/16 03:52:23;;;;;;;18.77;4.68;;;5.20;99.90;;;;;;5003931;28;20539;-79
2023/12/16 03:54:48;;;;;;;16.15;4.90;;;5.30;99.90;;;;;;4995419;28;20049;-80
2023/12/16 03:57:14;;;;;;;21.80;5.20;;;5.30;99.90;;;;;;5013550;28;20042;-79
2023/12/16 03:59:39;;;;;;;19.92;4.85;;;5.40;99.90;;;;;;5003751;28;20029;-79
2023/12/16 04:02:05;;;;;;;16.60;5.35;;;5.40;99.90;;;;;;5004034;28;20447;-80
2023/12/16 04:04:32;;;;;;;16.90;5.30;;;5.40;99.90;;;;;;4992881;28;20524;-79
2023/12/16 04:07:00;;;;;;;21.38;5.13;;;5.40;99.90;;;;;;4982917;28;20045;-79
2023/12/16 04:09:26;;;;;;;17.17;4.90;;;5.40;99.90;;;;;;5004746;28;20037;-79
2023/12/16 04:11:52;;;;;;;20.15;5.28;;;5.50;99.90;;;;;;4980597;28;20038;-80
2023/12/16 04:14:17;;;;;;;17.55;4.90;;;5.50;99.90;;;;;;4980172;28;20040;-80
2023/12/16 04:16:43;;;;;;;19.30;5.25;;;5.50;99.90;;;;;;4986625;28;20547;-79
2023/12/16 04:19:09;;;;;;;22.00;5.32;;;5.60;99.90;;;;;;4977395;28;20057;-79
2023/12/16 04:21:37;;;;;;;17.35;5.50;;;5.60;99.90;;;;;;5004491;28;20061;-79
2023/12/16 04:24:02;;;;;;;19.58;5.47;;;5.60;99.90;;;;;;4979998;28;20030;-79
2023/12/16 04:26:28;;;;;;;18.48;5.43;;;5.60;99.90;;;;;;4996430;28;20037;-79
2023/12/16 04:28:53;;;;;;;17.02;4.95;;;5.60;99.90;;;;;;4980074;28;20034;-79
2023/12/16 04:31:19;;;;;;;17.65;6.05;;;5.60;99.90;;;;;;5004604;28;20121;-79
2023/12/16 04:33:46;;;;;;;15.45;5.18;;;5.60;99.90;;;;;;4991448;28;20030;-80
2023/12/16 04:36:16;;;;;;;15.93;5.72;;;5.60;99.90;;;;;;4980030;28;20042;-80
2023/12/16 04:38:41;;;;;;;17.77;5.50;;;5.60;99.90;;;;;;4980125;28;20038;-80
2023/12/16 04:41:11;;;;;;;19.05;6.30;;;5.50;99.90;;;;;;4979949;28;20033;-79
2023/12/16 04:43:36;;;;;;;20.25;6.40;;;5.50;99.90;;;;;;4996609;28;20034;-79
2023/12/16 04:46:02;;;;;;;20.67;5.82;;;5.50;99.90;;;;;;4987272;28;20140;-79
2023/12/16 04:48:28;;;;;;;16.98;6.25;;;5.50;99.90;;;;;;4995855;28;20049;-79
2023/12/16 04:50:53;;;;;;;21.75;6.45;;;5.40;99.90;;;;;;4995723;28;20313;-79
2023/12/16 04:53:19;;;;;;;22.20;6.70;;;5.40;99.90;;;;;;4979123;28;20034;-80
2023/12/16 04:55:44;;;;;;;20.42;6.38;;;5.40;99.90;;;;;;4978338;28;20041;-79
2023/12/16 04:58:10;;;;;;;24.67;7.20;;;5.40;99.90;;;;;;4987035;28;20507;-79
2023/12/16 05:00:35;;;;;;;23.77;7.07;;;5.30;99.90;;;;;;4983474;28;20480;-79
2023/12/16 05:03:01;;;;;;;26.98;7.25;;;5.30;99.90;;;;;;4999560;28;20124;-79
2023/12/16 05:05:26;;;;;;;20.20;8.25;;;5.20;99.90;;;;;;4986844;28;20073;-80
2023/12/16 05:07:52;;;;;;;23.27;7.57;;;5.20;99.90;;;;;;5007058;28;20041;-80
2023/12/16 05:10:18;;;;;;;22.77;8.13;;;5.20;99.90;;;;;;4999813;28;20456;-80
2023/12/16 05:12:43;;;;;;;20.85;8.07;;;5.20;99.90;;;;;;4982789;28;20038;-80
2023/12/16 05:15:09;;;;;;;26.17;8.15;;;5.10;99.90;;;;;;4984885;28;20034;-80
2023/12/16 05:17:36;;;;;;;27.27;8.57;;;5.10;99.90;;;;;;4990960;28;20511;-80
2023/12/16 05:20:01;;;;;;;25.95;9.05;;;5.10;99.90;;;;;;4982605;28;20096;-80
2023/12/16 05:22:27;;;;;;;28.42;8.70;;;5.10;99.90;;;;;;4998972;28;20443;-80
2023/12/16 05:24:53;;;;;;;24.88;8.68;;;5.10;99.90;;;;;;4998328;28;20449;-79
2023/12/16 05:27:18;;;;;;;27.23;8.90;;;5.10;99.90;;;;;;4990671;28;20377;-79
2023/12/16 05:29:44;;;;;;;24.92;8.52;;;5.10;99.90;;;;;;4998834;28;20087;-79
2023/12/16 05:32:09;;;;;;;24.92;8.40;;;5.10;99.90;;;;;;5016023;28;20112;-79
2023/12/16 05:34:35;;;;;;;25.17;8.57;;;5.10;99.90;;;;;;5012325;28;20033;-79
2023/12/16 05:37:00;;;;;;;24.73;9.20;;;5.00;99.90;;;;;;4983031;28;20037;-79
2023/12/16 05:39:28;;;;;;;26.20;8.95;;;5.00;99.90;;;;;;4986223;28;20049;-80
2023/12/16 05:41:54;;;;;;;21.25;7.90;;;5.00;99.90;;;;;;4990695;28;20053;-80
2023/12/16 05:44:19;;;;;;;28.52;9.80;;;5.00;99.90;;;;;;4982962;28;20045;-80
2023/12/16 05:46:45;;;;;;;22.85;9.15;;;5.00;99.90;;;;;;4999392;28;20257;-79
2023/12/16 05:49:10;;;;;;;28.85;9.02;;;5.00;99.90;;;;;;4998610;28;20128;-79
2023/12/16 05:51:40;;;;;;;32.28;10.52;;;4.90;99.90;;;;;;4982454;28;20045;-79
2023/12/16 05:54:09;;;;;;;22.23;8.52;;;4.90;99.90;;;;;;4999532;28;20070;-80
2023/12/16 05:56:35;;;;;;;28.20;10.90;;;4.90;99.90;;;;;;5006852;28;20500;-80
2023/12/16 05:59:00;;;;;;;27.02;10.18;;;4.90;99.90;;;;;;4982874;28;20052;-80
2023/12/16 06:01:26;;;;;;;25.27;10.18;;;4.90;99.90;;;;;;4980985;28;20076;-80
2023/12/16 06:03:52;;;;;;;26.40;10.38;;;4.90;99.90;;;;;;4986722;28;20077;-80
2023/12/16 06:06:18;;;;;;;27.60;10.82;;;4.90;99.90;;;;;;5007411;28;20069;-79
2023/12/16 06:08:44;;;;;;;31.70;11.10;;;4.90;99.90;;;;;;4982674;28;20038;-80
2023/12/16 06:11:13;;;;;;;29.30;11.90;;;4.90;99.90;;;;;;4979449;28;20038;-79
2023/12/16 06:13:41;;;;;;;28.55;11.73;;;5.00;99.90;;;;;;4979246;28;20077;-80
2023/12/16 06:16:09;;;;;;;31.48;11.25;;;4.90;99.90;;;;;;4979235;28;20084;-80
2023/12/16 06:18:35;;;;;;;31.83;12.32;;;5.00;99.90;;;;;;4986617;28;20057;-79
2023/12/16 06:21:01;;;;;;;31.38;12.40;;;4.90;99.90;;;;;;4995736;28;20038;-80
2023/12/16 06:23:29;;;;;;;32.22;11.98;;;4.90;99.90;;;;;;4996267;28;20072;-80
2023/12/16 06:25:55;;;;;;;30.45;12.27;;;4.90;99.90;;;;;;4995973;28;20038;-79
2023/12/16 06:28:20;;;;;;;30.08;11.85;;;4.90;99.90;;;;;;4976839;28;20116;-80
2023/12/16 06:30:46;;;;;;;28.80;11.80;;;4.80;99.90;;;;;;4994379;28;20045;-80
2023/12/16 06:33:12;;;;;;;33.75;13.80;;;4.90;99.90;;;;;;4987160;28;20129;-80
2023/12/16 06:35:37;;;;;;;32.35;13.60;;;4.80;99.90;;;;;;5007464;28;20097;-80
2023/12/16 06:38:03;;;;;;;30.33;12.77;;;4.90;99.90;;;;;;4995854;28;20030;-79
2023/12/16 06:40:28;;;;;;;37.25;13.50;;;4.90;99.90;;;;;;4995961;28;20038;-79
2023/12/16 06:42:54;;;;;;;30.10;13.02;;;4.90;99.90;;;;;;5002829;28;20038;-80
2023/12/16 06:45:20;;;;;;;38.10;14.50;;;4.90;99.90;;;;;;5007087;28;20060;-80
2023/12/16 06:47:45;;;;;;;42.38;15.38;;;4.90;99.90;;;;;;5005976;28;20030;-80
2023/12/16 06:50:11;;;;;;;30.35;12.95;;;5.00;99.90;;;;;;4995593;28;20119;-79
2023/12/16 06:52:37;;;;;;;33.85;15.10;;;5.00;99.90;;;;;;4995478;28;20046;-79
2023/12/16 06:55:02;;;;;;;32.85;13.50;;;5.00;99.90;;;;;;4978463;28;20072;-80
2023/12/16 06:57:28;;;;;;;35.67;14.40;;;5.00;99.90;;;;;;4987004;28;20057;-80
2023/12/16 06:59:54;;;;;;;32.63;13.95;;;5.00;99.90;;;;;;4997406;28;20037;-80
2023/12/16 07:02:20;;;;;;;37.30;15.18;;;5.00;99.90;;;;;;5003543;28;20037;-80
2023/12/16 07:04:45;;;;;;;35.88;14.50;;;5.00;99.90;;;;;;4993663;28;20038;-81
2023/12/16 07:07:11;;;;;;;36.85;15.38;;;5.00;99.90;;;;;;5010331;28;20439;-79
2023/12/16 07:09:38;;;;;;;34.58;14.73;;;5.00;99.90;;;;;;4999736;28;20042;-80
2023/12/16 07:12:04;;;;;;;32.33;13.65;;;5.00;99.90;;;;;;5002732;28;20041;-80
2023/12/16 07:14:30;;;;;;;39.25;15.30;;;5.10;99.90;;;;;;4991250;28;20040;-80
2023/12/16 07:16:56;;;;;;;35.10;15.60;;;5.10;99.90;;;;;;4985679;28;20037;-79
2023/12/16 07:19:21;;;;;;;34.75;15.07;;;5.10;99.90;;;;;;4994592;28;20041;-79
2023/12/16 07:21:47;;;;;;;34.92;15.18;;;5.10;99.90;;;;;;4993891;28;20041;-79
2023/12/16 07:24:12;;;;;;;43.65;15.70;;;5.10;99.90;;;;;;4981373;28;20077;-79
2023/12/16 07:26:38;;;;;;;36.17;15.85;;;5.10;99.90;;;;;;4994837;28;20038;-82
2023/12/16 07:29:03;;;;;;;38.80;15.73;;;5.00;99.90;;;;;;4977603;28;20068;-82
2023/12/16 07:31:29;;;;;;;38.22;15.15;;;5.00;99.90;;;;;;4978927;28;20034;-85
2023/12/16 07:33:55;;;;;;;39.17;16.08;;;5.00;99.90;;;;;;4988218;28;20041;-81
2023/12/16 07:36:21;;;;;;;38.13;15.50;;;5.00;99.90;;;;;;5001695;28;20128;-81
2023/12/16 07:38:47;;;;;;;34.83;16.05;;;5.00;99.90;;;;;;4997561;28;20242;-81
2023/12/16 07:41:12;;;;;;;41.78;16.95;;;5.00;99.90;;;;;;5002771;28;20065;-80
2023/12/16 07:43:41;;;;;;;41.45;16.48;;;5.00;99.90;;;;;;5010826;28;21803;-80
2023/12/16 07:46:07;;;;;;;35.63;16.55;;;5.00;99.90;;;;;;4994841;28;20404;-81
2023/12/16 07:48:33;;;;;;;35.38;15.98;;;5.00;99.90;;;;;;4994403;28;20066;-81
2023/12/16 07:50:58;;;;;;;42.72;16.50;;;5.00;99.90;;;;;;4977770;28;20112;-81
2023/12/16 07:53:24;;;;;;;38.40;17.08;;;5.00;99.90;;;;;;4978256;28;20037;-80
2023/12/16 07:55:49;;;;;;;49.67;18.75;;;5.00;99.90;;;;;;4994091;28;20125;-80
2023/12/16 07:58:15;;;;;;;43.75;18.92;;;5.10;99.90;;;;;;4994641;28;20041;-81
2023/12/16 08:00:41;;;;;;;36.60;18.20;;;5.10;99.90;;;;;;4993831;28;20030;-80
2023/12/16 08:03:07;;;;;;;43.83;18.70;;;5.20;99.90;;;;;;4993855;28;20053;-80
2023/12/16 08:05:33;;;;;;;38.50;17.88;;;5.20;99.90;;;;;;4978262;28;20045;-80
2023/12/16 08:07:58;;;;;;;42.35;18.15;;;5.30;99.90;;;;;;4984639;28;20037;-80
2023/12/16 08:10:24;;;;;;;42.00;16.00;;;5.40;99.90;;;;;;4986295;28;20037;-80
2023/12/16 08:12:50;;;;;;;39.08;17.45;;;5.50;99.90;;;;;;5002219;28;20267;-81
2023/12/16 08:15:16;;;;;;;40.42;16.20;;;5.60;99.90;;;;;;4988905;28;20073;-80
2023/12/16 08:17:42;;;;;;;33.70;16.38;;;5.70;99.90;;;;;;5010271;28;20038;-81
2023/12/16 08:20:08;;;;;;;37.17;15.48;;;5.80;99.90;;;;;;5001987;28;20038;-80
2023/12/16 08:22:34;;;;;;;43.58;18.27;;;5.80;99.90;;;;;;5007652;28;20389;-80
2023/12/16 08:25:00;;;;;;;39.03;16.33;;;5.90;99.90;;;;;;5006495;28;20038;-80
2023/12/16 08:27:25;;;;;;;35.10;15.57;;;5.90;99.90;;;;;;5006583;28;20037;-80
2023/12/16 08:29:51;;;;;;;38.45;16.15;;;6.00;99.90;;;;;;4994223;28;20041;-81
2023/12/16 08:32:16;;;;;;;38.47;15.75;;;6.00;99.90;;;;;;4994147;28;20500;-81
2023/12/16 08:34:42;;;;;;;40.78;15.85;;;6.10;99.90;;;;;;4985453;28;20084;-80
2023/12/16 08:37:08;;;;;;;35.63;15.15;;;6.10;99.90;;;;;;5003510;28;20045;-80
2023/12/16 08:39:33;;;;;;;40.92;14.48;;;6.20;99.90;;;;;;4982254;28;20033;-80
2023/12/16 08:41:59;;;;;;;36.50;15.38;;;6.20;99.90;;;;;;4998241;28;20492;-80
2023/12/16 08:44:25;;;;;;;39.40;15.02;;;6.30;99.90;;;;;;4997572;28;20076;-80
2023/12/16 08:46:50;;;;;;;38.90;15.73;;;6.30;99.90;;;;;;4996870;28;20148;-80
2023/12/16 08:49:16;;;;;;;37.92;14.05;;;6.40;99.90;;;;;;5004991;28;20033;-80
2023/12/16 08:51:42;;;;;;;33.50;14.43;;;6.40;99.90;;;;;;5001610;28;20165;-80
2023/12/16 08:54:08;;;;;;;36.15;14.18;;;6.40;99.90;;;;;;4981014;28;20041;-83
2023/12/16 08:56:34;;;;;;;38.80;15.80;;;6.50;99.90;;;;;;4997120;28;20504;-84
2023/12/16 08:59:00;;;;;;;37.40;14.23;;;6.60;99.90;;;;;;4979909;28;20064;-84
2023/12/16 09:01:25;;;;;;;36.97;15.18;;;6.60;99.90;;;;;;4985740;28;20500;-84
2023/12/16 09:03:51;;;;;;;30.70;13.80;;;6.60;99.90;;;;;;4981794;28;20046;-84
2023/12/16 09:06:16;;;;;;;32.88;14.40;;;6.60;99.90;;;;;;4996851;28;20057;-82
2023/12/16 09:08:42;;;;;;;40.45;15.20;;;6.70;99.90;;;;;;4997000;28;20046;-81
2023/12/16 09:11:09;;;;;;;35.03;13.68;;;6.70;99.90;;;;;;4997480;28;20492;-82
2023/12/16 09:13:35;;;;;;;37.30;14.63;;;6.80;99.90;;;;;;4996585;28;20176;-82
2023/12/16 09:16:01;;;;;;;32.40;13.93;;;6.80;99.90;;;;;;4997325;28;20510;-82
2023/12/16 09:18:27;;;;;;;35.78;14.65;;;6.80;99.90;;;;;;4989835;28;20045;-82
2023/12/16 09:20:52;;;;;;;31.83;14.25;;;6.90;99.90;;;;;;4992857;28;20077;-82
2023/12/16 09:23:18;;;;;;;37.42;15.00;;;6.90;99.90;;;;;;4997558;28;20540;-83
2023/12/16 09:25:44;;;;;;;32.05;14.15;;;7.00;99.90;;;;;;4997749;28;20045;-83
2023/12/16 09:28:10;;;;;;;33.28;14.45;;;7.00;99.90;;;;;;4998692;28;20121;-84
2023/12/16 09:30:35;;;;;;;33.50;13.15;;;7.00;99.90;;;;;;4982929;28;20145;-85
2023/12/16 09:33:01;;;;;;;37.65;15.60;;;7.00;99.90;;;;;;4980427;28;20042;-84
2023/12/16 09:35:27;;;;;;;33.90;13.88;;;7.00;99.90;;;;;;4994192;28;20045;-80
2023/12/16 09:37:53;;;;;;;32.60;13.65;;;7.10;99.90;;;;;;5012886;28;20053;-84
2023/12/16 09:40:19;;;;;;;32.47;14.15;;;7.10;99.90;;;;;;4981071;28;20057;-83
2023/12/16 09:42:50;;;;;;;36.40;15.40;;;7.10;99.90;;;;;;4984643;28;20030;-83
2023/12/16 09:45:15;;;;;;;30.73;13.52;;;7.10;99.90;;;;;;4985280;28;20137;-84
2023/12/16 09:47:43;;;;;;;35.13;14.48;;;7.10;99.90;;;;;;4981247;28;20065;-84
2023/12/16 09:50:10;;;;;;;36.20;14.40;;;7.10;99.90;;;;;;4999760;28;20052;-80
2023/12/16 09:52:35;;;;;;;32.15;14.65;;;7.10;99.90;;;;;;5000571;28;20034;-80
2023/12/16 09:55:01;;;;;;;40.38;15.82;;;7.10;99.90;;;;;;4983885;28;20057;-82
2023/12/16 09:57:28;;;;;;;36.50;14.95;;;7.10;99.90;;;;;;4991853;28;20068;-82
2023/12/16 09:59:56;;;;;;;36.03;15.00;;;7.10;99.90;;;;;;4984369;28;20046;-79
2023/12/16 10:02:28;;;;;;;34.40;16.08;;;7.10;99.90;;;;;;4999848;28;20480;-79
2023/12/16 10:04:58;;;;;;;43.17;17.13;;;7.10;99.90;;;;;;4978449;28;20128;-80
2023/12/16 10:07:25;;;;;;;42.92;16.95;;;7.10;99.90;;;;;;4996543;28;20112;-80
2023/12/16 10:09:51;;;;;;;43.60;17.98;;;7.10;99.90;;;;;;4995904;28;20436;-82
2023/12/16 10:12:18;;;;;;;35.40;16.60;;;7.10;99.90;;;;;;4996448;28;20041;-80
2023/12/16 10:14:46;;;;;;;34.33;17.42;;;7.10;99.90;;;;;;4979889;28;20064;-81
2023/12/16 10:17:11;;;;;;;45.53;17.88;;;7.10;99.90;;;;;;4996422;28;20431;-80
2023/12/16 10:19:37;;;;;;;39.72;20.35;;;7.20;99.90;;;;;;4995652;28;20064;-80
2023/12/16 10:22:03;;;;;;;42.28;21.05;;;7.10;99.90;;;;;;4976647;28;20125;-80
2023/12/16 10:24:28;;;;;;;50.72;23.38;;;7.20;99.90;;;;;;4999331;28;20030;-80
2023/12/16 10:26:54;;;;;;;51.30;22.88;;;7.20;99.90;;;;;;4994570;28;20060;-80
2023/12/16 10:29:20;;;;;;;53.50;23.35;;;7.20;99.90;;;;;;4995733;28;20038;-80
2023/12/16 10:31:46;;;;;;;56.10;25.25;;;7.20;99.90;;;;;;4995829;28;20472;-80
2023/12/16 10:34:11;;;;;;;58.50;27.40;;;7.20;99.90;;;;;;4979112;28;20100;-80
2023/12/16 10:36:37;;;;;;;64.88;30.20;;;7.20;99.90;;;;;;4996072;28;20044;-80
2023/12/16 10:39:03;;;;;;;66.25;32.42;;;7.20;99.90;;;;;;4994700;28;20061;-80
2023/12/16 10:41:28;;;;;;;70.47;35.20;;;7.20;99.90;;;;;;4995629;28;20034;-79
2023/12/16 10:43:54;;;;;;;73.00;34.55;;;7.20;99.90;;;;;;4995015;28;20100;-80
2023/12/16 10:46:21;;;;;;;73.25;36.33;;;7.20;99.90;;;;;;4995964;28;20042;-80
2023/12/16 10:48:50;;;;;;;77.22;37.53;;;7.20;99.90;;;;;;4995598;28;20041;-80
2023/12/16 10:51:18;;;;;;;83.82;39.22;;;7.20;99.90;;;;;;4979217;28;20092;-79
2023/12/16 10:54:16;;;;;;;82.85;39.35;;;7.20;99.90;;;;;;4995446;28;20045;-80
2023/12/16 10:56:52;;;;;;;86.15;42.20;;;7.20;99.90;;;;;;4994028;28;20061;-80
2023/12/16 10:59:22;;;;;;;88.07;41.90;;;7.20;99.90;;;;;;4992914;28;20048;-80
2023/12/16 11:01:56;;;;;;;91.57;42.75;;;7.20;99.90;;;;;;4997780;28;20037;-80
2023/12/16 11:04:32;;;;;;;90.32;42.45;;;7.20;99.90;;;;;;4987231;28;20042;-80
2023/12/16 11:07:12;;;;;;;110.95;47.35;;;7.20;99.90;;;;;;5004738;28;20041;-84
2023/12/16 11:09:40;;;;;;;122.95;50.53;;;7.20;99.90;;;;;;4995291;28;20381;-84
2023/12/16 11:12:07;;;;;;;95.05;46.30;;;7.30;99.90;;;;;;4994758;28;20064;-80
2023/12/16 11:14:34;;;;;;;100.45;48.67;;;7.30;99.90;;;;;;5002990;28;20393;-82
2023/12/16 11:17:29;;;;;;;108.05;48.92;;;7.30;99.90;;;;;;5004691;28;20030;-81
2023/12/16 11:20:06;;;;;;;99.35;47.13;;;7.40;99.90;;;;;;5001357;28;20042;-83
2023/12/16 11:22:33;;;;;;;109.30;49.38;;;7.40;99.90;;;;;;4989957;28;20542;-81
2023/12/16 11:25:00;;;;;;;115.35;51.90;;;7.40;99.90;;;;;;4978651;28;20512;-82
2023/12/16 11:27:31;;;;;;;107.15;51.40;;;7.40;99.90;;;;;;4994938;28;20076;-82
2023/12/16 11:29:56;;;;;;;105.78;50.75;;;7.40;99.90;;;;;;4978793;28;20108;-81
2023/12/16 11:32:22;;;;;;;120.53;53.53;;;7.50;99.90;;;;;;4978266;28;20492;-82
2023/12/16 11:34:51;;;;;;;119.00;53.17;;;7.50;99.90;;;;;;4986952;28;20038;-83
2023/12/16 11:37:34;;;;;;;113.20;51.50;;;7.50;99.90;;;;;;5003056;28;20427;-81
2023/12/16 11:40:03;;;;;;;121.13;54.22;;;7.50;99.90;;;;;;4995696;28;20381;-81
2023/12/16 11:42:53;;;;;;;121.45;54.92;;;7.50;99.90;;;;;;4982696;28;20045;-81
2023/12/16 11:45:38;;;;;;;136.95;56.15;;;7.50;99.90;;;;;;5001122;28;20050;-81
2023/12/16 11:48:08;;;;;;;144.20;57.00;;;7.50;99.90;;;;;;5011241;28;20081;-81
2023/12/16 11:50:37;;;;;;;128.88;57.30;;;7.60;99.90;;;;;;5004695;28;20041;-81
2023/12/16 11:53:04;;;;;;;116.90;55.58;;;7.50;99.90;;;;;;4994371;28;20037;-81
2023/12/16 11:55:30;;;;;;;127.20;55.53;;;7.60;99.90;;;;;;4994799;28;20068;-81
2023/12/16 11:57:56;;;;;;;120.75;55.42;;;7.60;99.90;;;;;;5002189;28;20069;-81
2023/12/16 12:00:24;;;;;;;133.48;57.10;;;7.60;99.90;;;;;;5017291;23;20614;-76
2023/12/16 12:02:50;;;;;;;149.15;60.08;;;7.60;99.90;;;;;;5013302;28;20049;-76
2023/12/16 12:05:17;;;;;;;131.95;58.17;;;7.70;99.90;;;;;;5011624;28;20337;-75
2023/12/16 12:07:45;;;;;;;118.40;55.97;;;7.70;99.90;;;;;;5003438;28;20091;-77
2023/12/16 12:10:17;;;;;;;128.52;57.90;;;7.70;99.90;;;;;;5030724;28;20041;-76
2023/12/16 12:12:43;;;;;;;165.23;63.22;;;7.70;99.90;;;;;;5010224;28;20045;-76
2023/12/16 12:15:32;;;;;;;145.27;60.08;;;7.70;99.90;;;;;;5023368;28;20041;-77
2023/12/16 12:18:04;;;;;;;116.75;55.03;;;7.70;99.90;;;;;;4998024;28;20041;-77
2023/12/16 12:20:32;;;;;;;152.73;60.00;;;7.80;99.90;;;;;;4997018;28;20091;-77
2023/12/16 12:23:01;;;;;;;116.78;56.72;;;7.70;99.90;;;;;;4990776;28;20300;-76
2023/12/16 12:25:26;;;;;;;133.70;56.13;;;7.80;99.90;;;;;;5013645;28;20047;-76
2023/12/16 12:28:14;;;;;;;127.60;56.05;;;7.70;99.90;;;;;;5010139;28;20120;-78
2023/12/16 12:30:48;;;;;;;136.07;56.53;;;7.80;99.90;;;;;;5010498;28;20045;-78
2023/12/16 12:36:09;;;;;;;120.90;55.60;;;7.90;99.90;;;;;;5015518;28;20061;-78
2023/12/16 12:39:06;;;;;;;130.57;55.85;;;7.90;99.90;;;;;;5014284;28;20034;-78
2023/12/16 12:42:05;;;;;;;153.18;59.05;;;7.90;99.90;;;;;;5015939;28;20488;-77